sensor_id;sensor_type;location;lat;lon;timestamp;P1;durP1;ratioP1;P2;durP2;ratioP2
12852;SDS011;6495;51.808;7.478;2023-06-10T00:00:08;7.35;;;5.50;;
12852;SDS011;6495;51.808;7.478;2023-06-10T00:02:39;7.93;;;5.47;;
12852;SDS011;6495;51.808;7.478;2023-06-10T00:05:09;6.88;;;5.43;;
12852;SDS011;6495;51.808;7.478;2023-06-10T00:07:39;7.57;;;5.32;;
12852;SDS011;6495;51.808;7.478;2023-06-10T00:10:08;6.95;;;5.70;;
12852;SDS011;6495;51.808;7.478;2023-06-10T00:12:37;5.38;;;4.85;;
12852;SDS011;6495;51.808;7.478;2023-06-10T00:15:07;7.93;;;6.00;;
12852;SDS011;6495;51.808;7.478;2023-06-10T00:17:37;6.32;;;5.03;;
12852;SDS011;6495;51.808;7.478;2023-06-10T00:20:07;10.15;;;5.93;;
12852;SDS011;6495;51.808;7.478;2023-06-10T00:22:43;8.65;;;5.78;;
12852;SDS011;6495;51.808;7.478;2023-06-10T00:25:17;6.60;;;5.07;;
12852;SDS011;6495;51.808;7.478;2023-06-10T00:27:50;6.70;;;5.22;;
12852;SDS011;6495;51.808;7.478;2023-06-10T00:30:23;6.85;;;5.38;;
12852;SDS011;6495;51.808;7.478;2023-06-10T00:32:55;6.28;;;4.85;;
12852;SDS011;6495;51.808;7.478;2023-06-10T00:35:25;6.43;;;5.00;;
12852;SDS011;6495;51.808;7.478;2023-06-10T00:37:55;7.82;;;5.30;;
12852;SDS011;6495;51.808;7.478;2023-06-10T00:40:33;5.63;;;5.13;;
12852;SDS011;6495;51.808;7.478;2023-06-10T00:43:08;6.28;;;5.10;;
12852;SDS011;6495;51.808;7.478;2023-06-10T00:45:36;7.80;;;5.40;;
12852;SDS011;6495;51.808;7.478;2023-06-10T00:48:05;10.10;;;5.13;;
12852;SDS011;6495;51.808;7.478;2023-06-10T00:50:34;6.78;;;5.15;;
12852;SDS011;6495;51.808;7.478;2023-06-10T00:53:07;5.82;;;4.68;;
12852;SDS011;6495;51.808;7.478;2023-06-10T00:55:36;8.57;;;4.93;;
12852;SDS011;6495;51.808;7.478;2023-06-10T00:58:05;8.35;;;4.70;;
12852;SDS011;6495;51.808;7.478;2023-06-10T01:00:33;7.55;;;5.22;;
12852;SDS011;6495;51.808;7.478;2023-06-10T01:03:02;7.40;;;5.07;;
12852;SDS011;6495;51.808;7.478;2023-06-10T01:05:34;6.57;;;5.00;;
12852;SDS011;6495;51.808;7.478;2023-06-10T01:08:06;7.93;;;4.93;;
12852;SDS011;6495;51.808;7.478;2023-06-10T01:10:46;6.40;;;4.97;;
12852;SDS011;6495;51.808;7.478;2023-06-10T01:13:22;7.35;;;4.55;;
12852;SDS011;6495;51.808;7.478;2023-06-10T01:15:56;6.30;;;4.95;;
12852;SDS011;6495;51.808;7.478;2023-06-10T01:18:29;8.05;;;5.10;;
12852;SDS011;6495;51.808;7.478;2023-06-10T01:20:59;5.43;;;4.47;;
12852;SDS011;6495;51.808;7.478;2023-06-10T01:23:31;5.22;;;4.43;;
12852;SDS011;6495;51.808;7.478;2023-06-10T01:26:01;5.75;;;4.75;;
12852;SDS011;6495;51.808;7.478;2023-06-10T01:28:38;7.13;;;5.10;;
12852;SDS011;6495;51.808;7.478;2023-06-10T01:31:28;6.50;;;4.60;;
12852;SDS011;6495;51.808;7.478;2023-06-10T01:34:06;6.45;;;4.75;;
12852;SDS011;6495;51.808;7.478;2023-06-10T01:36:40;5.95;;;5.03;;
12852;SDS011;6495;51.808;7.478;2023-06-10T01:39:12;6.85;;;5.00;;
12852;SDS011;6495;51.808;7.478;2023-06-10T01:41:43;9.40;;;4.82;;
12852;SDS011;6495;51.808;7.478;2023-06-10T01:44:17;6.47;;;4.63;;
12852;SDS011;6495;51.808;7.478;2023-06-10T01:46:47;10.57;;;4.82;;
12852;SDS011;6495;51.808;7.478;2023-06-10T01:49:15;5.60;;;4.78;;
12852;SDS011;6495;51.808;7.478;2023-06-10T01:51:44;7.22;;;4.80;;
12852;SDS011;6495;51.808;7.478;2023-06-10T01:54:14;6.55;;;4.50;;
12852;SDS011;6495;51.808;7.478;2023-06-10T01:56:42;7.47;;;4.75;;
12852;SDS011;6495;51.808;7.478;2023-06-10T01:59:10;5.75;;;4.22;;
12852;SDS011;6495;51.808;7.478;2023-06-10T02:01:42;5.63;;;4.65;;
12852;SDS011;6495;51.808;7.478;2023-06-10T02:04:13;6.55;;;4.75;;
12852;SDS011;6495;51.808;7.478;2023-06-10T02:06:41;7.35;;;4.82;;
12852;SDS011;6495;51.808;7.478;2023-06-10T02:09:10;5.45;;;4.45;;
12852;SDS011;6495;51.808;7.478;2023-06-10T02:11:40;5.85;;;4.50;;
12852;SDS011;6495;51.808;7.478;2023-06-10T02:14:08;7.82;;;4.57;;
12852;SDS011;6495;51.808;7.478;2023-06-10T02:16:39;6.65;;;4.53;;
12852;SDS011;6495;51.808;7.478;2023-06-10T02:19:13;7.28;;;4.40;;
12852;SDS011;6495;51.808;7.478;2023-06-10T02:21:42;8.93;;;4.78;;
12852;SDS011;6495;51.808;7.478;2023-06-10T02:24:10;5.75;;;4.60;;
12852;SDS011;6495;51.808;7.478;2023-06-10T02:26:41;8.48;;;4.82;;
12852;SDS011;6495;51.808;7.478;2023-06-10T02:29:09;6.68;;;4.40;;
12852;SDS011;6495;51.808;7.478;2023-06-10T02:31:38;6.13;;;4.57;;
12852;SDS011;6495;51.808;7.478;2023-06-10T02:34:08;7.82;;;4.88;;
12852;SDS011;6495;51.808;7.478;2023-06-10T02:36:36;6.68;;;4.63;;
12852;SDS011;6495;51.808;7.478;2023-06-10T02:39:06;10.93;;;4.65;;
12852;SDS011;6495;51.808;7.478;2023-06-10T02:41:35;6.55;;;4.47;;
12852;SDS011;6495;51.808;7.478;2023-06-10T02:44:05;8.27;;;4.40;;
12852;SDS011;6495;51.808;7.478;2023-06-10T02:46:34;8.40;;;4.28;;
12852;SDS011;6495;51.808;7.478;2023-06-10T02:49:08;5.13;;;4.35;;
12852;SDS011;6495;51.808;7.478;2023-06-10T02:51:36;5.60;;;4.93;;
12852;SDS011;6495;51.808;7.478;2023-06-10T02:54:06;6.68;;;4.60;;
12852;SDS011;6495;51.808;7.478;2023-06-10T02:56:37;6.57;;;4.13;;
12852;SDS011;6495;51.808;7.478;2023-06-10T02:59:15;6.50;;;4.47;;
12852;SDS011;6495;51.808;7.478;2023-06-10T03:01:45;5.78;;;4.38;;
12852;SDS011;6495;51.808;7.478;2023-06-10T03:04:14;5.85;;;4.32;;
12852;SDS011;6495;51.808;7.478;2023-06-10T03:06:51;6.22;;;4.70;;
12852;SDS011;6495;51.808;7.478;2023-06-10T03:09:28;6.68;;;4.15;;
12852;SDS011;6495;51.808;7.478;2023-06-10T03:11:59;6.13;;;4.57;;
12852;SDS011;6495;51.808;7.478;2023-06-10T03:14:34;6.32;;;4.40;;
12852;SDS011;6495;51.808;7.478;2023-06-10T03:17:03;7.40;;;4.38;;
12852;SDS011;6495;51.808;7.478;2023-06-10T03:19:35;6.10;;;4.72;;
12852;SDS011;6495;51.808;7.478;2023-06-10T03:22:08;5.95;;;4.25;;
12852;SDS011;6495;51.808;7.478;2023-06-10T03:24:45;6.75;;;4.25;;
12852;SDS011;6495;51.808;7.478;2023-06-10T03:27:16;5.90;;;4.65;;
12852;SDS011;6495;51.808;7.478;2023-06-10T03:29:50;7.35;;;4.10;;
12852;SDS011;6495;51.808;7.478;2023-06-10T03:32:19;5.70;;;3.95;;
12852;SDS011;6495;51.808;7.478;2023-06-10T03:34:48;7.18;;;4.13;;
12852;SDS011;6495;51.808;7.478;2023-06-10T03:37:18;8.93;;;3.97;;
12852;SDS011;6495;51.808;7.478;2023-06-10T03:39:48;6.72;;;4.22;;
12852;SDS011;6495;51.808;7.478;2023-06-10T03:42:16;6.53;;;4.28;;
12852;SDS011;6495;51.808;7.478;2023-06-10T03:44:45;4.88;;;3.85;;
12852;SDS011;6495;51.808;7.478;2023-06-10T03:47:15;5.82;;;3.90;;
12852;SDS011;6495;51.808;7.478;2023-06-10T03:49:43;5.97;;;3.97;;
12852;SDS011;6495;51.808;7.478;2023-06-10T03:52:12;4.78;;;4.00;;
12852;SDS011;6495;51.808;7.478;2023-06-10T03:54:41;4.85;;;3.55;;
12852;SDS011;6495;51.808;7.478;2023-06-10T03:57:10;6.78;;;4.30;;
12852;SDS011;6495;51.808;7.478;2023-06-10T03:59:39;8.57;;;4.03;;
12852;SDS011;6495;51.808;7.478;2023-06-10T04:02:07;7.28;;;4.25;;
12852;SDS011;6495;51.808;7.478;2023-06-10T04:04:37;5.53;;;3.88;;
12852;SDS011;6495;51.808;7.478;2023-06-10T04:07:06;6.88;;;3.80;;
12852;SDS011;6495;51.808;7.478;2023-06-10T04:09:35;6.18;;;4.00;;
12852;SDS011;6495;51.808;7.478;2023-06-10T04:12:04;6.47;;;3.65;;
12852;SDS011;6495;51.808;7.478;2023-06-10T04:14:35;5.53;;;4.30;;
12852;SDS011;6495;51.808;7.478;2023-06-10T04:17:05;5.50;;;4.38;;
12852;SDS011;6495;51.808;7.478;2023-06-10T04:19:35;5.70;;;4.38;;
12852;SDS011;6495;51.808;7.478;2023-06-10T04:22:06;6.38;;;3.65;;
12852;SDS011;6495;51.808;7.478;2023-06-10T04:24:34;6.53;;;4.20;;
12852;SDS011;6495;51.808;7.478;2023-06-10T04:27:02;5.07;;;3.67;;
12852;SDS011;6495;51.808;7.478;2023-06-10T04:29:31;6.15;;;3.95;;
12852;SDS011;6495;51.808;7.478;2023-06-10T04:32:00;8.40;;;4.20;;
12852;SDS011;6495;51.808;7.478;2023-06-10T04:34:30;6.47;;;4.05;;
12852;SDS011;6495;51.808;7.478;2023-06-10T04:37:02;7.03;;;4.35;;
12852;SDS011;6495;51.808;7.478;2023-06-10T04:39:31;10.68;;;4.50;;
12852;SDS011;6495;51.808;7.478;2023-06-10T04:42:04;5.78;;;4.22;;
12852;SDS011;6495;51.808;7.478;2023-06-10T04:44:33;9.05;;;4.35;;
12852;SDS011;6495;51.808;7.478;2023-06-10T04:47:01;8.07;;;4.10;;
12852;SDS011;6495;51.808;7.478;2023-06-10T04:49:30;7.22;;;3.90;;
12852;SDS011;6495;51.808;7.478;2023-06-10T04:52:02;7.82;;;4.20;;
12852;SDS011;6495;51.808;7.478;2023-06-10T04:54:35;6.07;;;3.97;;
12852;SDS011;6495;51.808;7.478;2023-06-10T04:57:05;6.03;;;4.22;;
12852;SDS011;6495;51.808;7.478;2023-06-10T04:59:34;8.48;;;3.95;;
12852;SDS011;6495;51.808;7.478;2023-06-10T05:02:04;7.38;;;4.45;;
12852;SDS011;6495;51.808;7.478;2023-06-10T05:04:33;6.82;;;3.83;;
12852;SDS011;6495;51.808;7.478;2023-06-10T05:07:02;7.15;;;4.30;;
12852;SDS011;6495;51.808;7.478;2023-06-10T05:09:31;8.20;;;4.68;;
12852;SDS011;6495;51.808;7.478;2023-06-10T05:12:00;8.57;;;4.22;;
12852;SDS011;6495;51.808;7.478;2023-06-10T05:14:29;5.95;;;4.32;;
12852;SDS011;6495;51.808;7.478;2023-06-10T05:16:57;6.32;;;4.43;;
12852;SDS011;6495;51.808;7.478;2023-06-10T05:19:26;7.47;;;3.90;;
12852;SDS011;6495;51.808;7.478;2023-06-10T05:21:54;10.05;;;4.30;;
12852;SDS011;6495;51.808;7.478;2023-06-10T05:24:24;5.72;;;4.20;;
12852;SDS011;6495;51.808;7.478;2023-06-10T05:26:52;6.00;;;4.20;;
12852;SDS011;6495;51.808;7.478;2023-06-10T05:29:20;7.68;;;4.30;;
12852;SDS011;6495;51.808;7.478;2023-06-10T05:31:49;4.85;;;3.60;;
12852;SDS011;6495;51.808;7.478;2023-06-10T05:34:17;6.53;;;4.18;;
12852;SDS011;6495;51.808;7.478;2023-06-10T05:36:46;8.07;;;4.10;;
12852;SDS011;6495;51.808;7.478;2023-06-10T05:39:14;7.05;;;4.22;;
12852;SDS011;6495;51.808;7.478;2023-06-10T05:41:45;6.30;;;3.90;;
12852;SDS011;6495;51.808;7.478;2023-06-10T05:44:14;5.88;;;4.20;;
12852;SDS011;6495;51.808;7.478;2023-06-10T05:46:42;6.72;;;4.30;;
12852;SDS011;6495;51.808;7.478;2023-06-10T05:49:10;9.23;;;4.20;;
12852;SDS011;6495;51.808;7.478;2023-06-10T05:51:42;6.70;;;3.55;;
12852;SDS011;6495;51.808;7.478;2023-06-10T05:54:10;6.90;;;3.90;;
12852;SDS011;6495;51.808;7.478;2023-06-10T05:56:38;5.15;;;3.40;;
12852;SDS011;6495;51.808;7.478;2023-06-10T05:59:08;6.65;;;3.70;;
12852;SDS011;6495;51.808;7.478;2023-06-10T06:01:37;6.68;;;4.10;;
12852;SDS011;6495;51.808;7.478;2023-06-10T06:04:05;5.90;;;4.22;;
12852;SDS011;6495;51.808;7.478;2023-06-10T06:06:34;4.85;;;3.90;;
12852;SDS011;6495;51.808;7.478;2023-06-10T06:09:03;7.78;;;3.97;;
12852;SDS011;6495;51.808;7.478;2023-06-10T06:11:32;5.13;;;3.88;;
12852;SDS011;6495;51.808;7.478;2023-06-10T06:14:03;4.68;;;3.53;;
12852;SDS011;6495;51.808;7.478;2023-06-10T06:16:36;6.43;;;3.67;;
12852;SDS011;6495;51.808;7.478;2023-06-10T06:19:07;5.78;;;3.72;;
12852;SDS011;6495;51.808;7.478;2023-06-10T06:21:37;6.00;;;3.72;;
12852;SDS011;6495;51.808;7.478;2023-06-10T06:24:06;10.80;;;3.83;;
12852;SDS011;6495;51.808;7.478;2023-06-10T06:26:35;7.82;;;3.65;;
12852;SDS011;6495;51.808;7.478;2023-06-10T06:29:03;4.80;;;3.55;;
12852;SDS011;6495;51.808;7.478;2023-06-10T06:31:33;6.80;;;3.88;;
12852;SDS011;6495;51.808;7.478;2023-06-10T06:34:01;5.72;;;3.95;;
12852;SDS011;6495;51.808;7.478;2023-06-10T06:36:30;5.05;;;3.72;;
12852;SDS011;6495;51.808;7.478;2023-06-10T06:39:03;7.15;;;3.90;;
12852;SDS011;6495;51.808;7.478;2023-06-10T06:41:32;7.35;;;3.95;;
12852;SDS011;6495;51.808;7.478;2023-06-10T06:44:00;7.07;;;3.60;;
12852;SDS011;6495;51.808;7.478;2023-06-10T06:46:33;5.53;;;3.65;;
12852;SDS011;6495;51.808;7.478;2023-06-10T06:49:01;4.05;;;3.17;;
12852;SDS011;6495;51.808;7.478;2023-06-10T06:51:31;5.05;;;3.25;;
12852;SDS011;6495;51.808;7.478;2023-06-10T06:54:10;6.25;;;3.50;;
12852;SDS011;6495;51.808;7.478;2023-06-10T06:56:42;5.80;;;3.55;;
12852;SDS011;6495;51.808;7.478;2023-06-10T06:59:10;4.70;;;3.42;;
12852;SDS011;6495;51.808;7.478;2023-06-10T07:01:41;5.82;;;3.45;;
12852;SDS011;6495;51.808;7.478;2023-06-10T07:04:09;6.25;;;3.58;;
12852;SDS011;6495;51.808;7.478;2023-06-10T07:06:38;7.28;;;3.30;;
12852;SDS011;6495;51.808;7.478;2023-06-10T07:09:06;6.88;;;3.60;;
12852;SDS011;6495;51.808;7.478;2023-06-10T07:11:35;9.75;;;3.47;;
12852;SDS011;6495;51.808;7.478;2023-06-10T07:14:04;3.67;;;3.35;;
12852;SDS011;6495;51.808;7.478;2023-06-10T07:16:32;6.32;;;3.63;;
12852;SDS011;6495;51.808;7.478;2023-06-10T07:19:02;5.60;;;3.30;;
12852;SDS011;6495;51.808;7.478;2023-06-10T07:21:32;5.57;;;3.53;;
12852;SDS011;6495;51.808;7.478;2023-06-10T07:24:02;7.22;;;3.38;;
12852;SDS011;6495;51.808;7.478;2023-06-10T07:26:32;4.03;;;3.00;;
12852;SDS011;6495;51.808;7.478;2023-06-10T07:29:00;4.03;;;3.08;;
12852;SDS011;6495;51.808;7.478;2023-06-10T07:31:29;4.00;;;3.13;;
12852;SDS011;6495;51.808;7.478;2023-06-10T07:33:59;8.95;;;3.53;;
12852;SDS011;6495;51.808;7.478;2023-06-10T07:36:37;3.88;;;3.30;;
12852;SDS011;6495;51.808;7.478;2023-06-10T07:39:10;4.38;;;3.40;;
12852;SDS011;6495;51.808;7.478;2023-06-10T07:41:39;3.78;;;2.95;;
12852;SDS011;6495;51.808;7.478;2023-06-10T07:44:11;5.28;;;3.50;;
12852;SDS011;6495;51.808;7.478;2023-06-10T07:46:40;5.53;;;3.15;;
12852;SDS011;6495;51.808;7.478;2023-06-10T07:49:19;5.13;;;3.00;;
12852;SDS011;6495;51.808;7.478;2023-06-10T07:51:48;4.18;;;2.75;;
12852;SDS011;6495;51.808;7.478;2023-06-10T07:54:17;5.47;;;3.10;;
12852;SDS011;6495;51.808;7.478;2023-06-10T07:56:48;3.78;;;2.97;;
12852;SDS011;6495;51.808;7.478;2023-06-10T07:59:19;5.68;;;3.17;;
12852;SDS011;6495;51.808;7.478;2023-06-10T08:01:52;4.18;;;3.22;;
12852;SDS011;6495;51.808;7.478;2023-06-10T08:05:47;4.47;;;2.92;;
12852;SDS011;6495;51.808;7.478;2023-06-10T08:08:19;5.38;;;3.25;;
12852;SDS011;6495;51.808;7.478;2023-06-10T08:11:18;4.32;;;3.20;;
12852;SDS011;6495;51.808;7.478;2023-06-10T08:13:55;5.95;;;3.22;;
12852;SDS011;6495;51.808;7.478;2023-06-10T08:16:38;4.10;;;3.22;;
12852;SDS011;6495;51.808;7.478;2023-06-10T08:19:23;5.47;;;3.17;;
12852;SDS011;6495;51.808;7.478;2023-06-10T08:22:01;5.90;;;2.78;;
12852;SDS011;6495;51.808;7.478;2023-06-10T08:24:41;4.45;;;3.22;;
12852;SDS011;6495;51.808;7.478;2023-06-10T08:27:14;5.78;;;2.90;;
12852;SDS011;6495;51.808;7.478;2023-06-10T08:29:43;6.22;;;2.88;;
12852;SDS011;6495;51.808;7.478;2023-06-10T08:32:11;3.90;;;3.15;;
12852;SDS011;6495;51.808;7.478;2023-06-10T08:34:40;5.78;;;3.30;;
12852;SDS011;6495;51.808;7.478;2023-06-10T08:37:10;3.13;;;2.67;;
12852;SDS011;6495;51.808;7.478;2023-06-10T08:39:39;4.30;;;3.15;;
12852;SDS011;6495;51.808;7.478;2023-06-10T08:42:17;4.32;;;2.95;;
12852;SDS011;6495;51.808;7.478;2023-06-10T08:44:55;6.32;;;3.15;;
12852;SDS011;6495;51.808;7.478;2023-06-10T08:47:38;4.68;;;3.30;;
12852;SDS011;6495;51.808;7.478;2023-06-10T08:50:26;5.00;;;3.00;;
12852;SDS011;6495;51.808;7.478;2023-06-10T08:53:01;5.90;;;3.17;;
12852;SDS011;6495;51.808;7.478;2023-06-10T08:55:35;3.83;;;2.88;;
12852;SDS011;6495;51.808;7.478;2023-06-10T08:58:09;3.88;;;3.22;;
12852;SDS011;6495;51.808;7.478;2023-06-10T09:00:44;4.30;;;2.97;;
12852;SDS011;6495;51.808;7.478;2023-06-10T09:03:18;5.80;;;2.80;;
12852;SDS011;6495;51.808;7.478;2023-06-10T09:05:52;3.58;;;3.05;;
12852;SDS011;6495;51.808;7.478;2023-06-10T09:08:23;4.05;;;2.97;;
12852;SDS011;6495;51.808;7.478;2023-06-10T09:10:53;5.18;;;3.22;;
12852;SDS011;6495;51.808;7.478;2023-06-10T09:13:41;6.88;;;3.75;;
12852;SDS011;6495;51.808;7.478;2023-06-10T09:16:12;3.58;;;3.22;;
12852;SDS011;6495;51.808;7.478;2023-06-10T09:18:55;4.88;;;3.22;;
12852;SDS011;6495;51.808;7.478;2023-06-10T09:21:39;3.80;;;3.00;;
12852;SDS011;6495;51.808;7.478;2023-06-10T09:24:41;6.60;;;3.47;;
12852;SDS011;6495;51.808;7.478;2023-06-10T09:27:29;4.20;;;3.47;;
12852;SDS011;6495;51.808;7.478;2023-06-10T09:30:37;4.85;;;3.10;;
12852;SDS011;6495;51.808;7.478;2023-06-10T09:33:42;7.15;;;3.35;;
12852;SDS011;6495;51.808;7.478;2023-06-10T09:36:46;4.97;;;3.13;;
12852;SDS011;6495;51.808;7.478;2023-06-10T09:39:29;6.28;;;3.60;;
12852;SDS011;6495;51.808;7.478;2023-06-10T09:42:21;5.75;;;3.10;;
12852;SDS011;6495;51.808;7.478;2023-06-10T09:45:06;3.90;;;3.30;;
12852;SDS011;6495;51.808;7.478;2023-06-10T09:47:50;5.82;;;3.30;;
12852;SDS011;6495;51.808;7.478;2023-06-10T09:50:41;5.50;;;3.38;;
12852;SDS011;6495;51.808;7.478;2023-06-10T09:53:16;5.50;;;3.50;;
12852;SDS011;6495;51.808;7.478;2023-06-10T09:55:52;4.68;;;3.20;;
12852;SDS011;6495;51.808;7.478;2023-06-10T09:58:34;7.03;;;3.40;;
12852;SDS011;6495;51.808;7.478;2023-06-10T10:01:04;4.13;;;3.10;;
12852;SDS011;6495;51.808;7.478;2023-06-10T10:03:43;4.88;;;3.25;;
12852;SDS011;6495;51.808;7.478;2023-06-10T10:06:18;4.20;;;3.53;;
12852;SDS011;6495;51.808;7.478;2023-06-10T10:08:57;5.03;;;3.72;;
12852;SDS011;6495;51.808;7.478;2023-06-10T10:11:30;4.82;;;3.38;;
12852;SDS011;6495;51.808;7.478;2023-06-10T10:14:09;8.25;;;3.40;;
12852;SDS011;6495;51.808;7.478;2023-06-10T10:16:45;4.75;;;3.20;;
12852;SDS011;6495;51.808;7.478;2023-06-10T10:19:20;4.50;;;3.42;;
12852;SDS011;6495;51.808;7.478;2023-06-10T10:22:08;4.32;;;3.38;;
12852;SDS011;6495;51.808;7.478;2023-06-10T10:24:40;4.13;;;3.38;;
12852;SDS011;6495;51.808;7.478;2023-06-10T10:27:30;7.13;;;3.55;;
12852;SDS011;6495;51.808;7.478;2023-06-10T10:30:08;4.18;;;3.50;;
12852;SDS011;6495;51.808;7.478;2023-06-10T10:32:43;3.72;;;3.10;;
12852;SDS011;6495;51.808;7.478;2023-06-10T10:35:22;3.60;;;3.22;;
12852;SDS011;6495;51.808;7.478;2023-06-10T10:37:52;3.97;;;3.35;;
12852;SDS011;6495;51.808;7.478;2023-06-10T10:40:22;4.97;;;3.85;;
12852;SDS011;6495;51.808;7.478;2023-06-10T10:42:57;5.30;;;3.55;;
12852;SDS011;6495;51.808;7.478;2023-06-10T10:45:31;3.65;;;2.97;;
12852;SDS011;6495;51.808;7.478;2023-06-10T10:48:04;5.53;;;3.67;;
12852;SDS011;6495;51.808;7.478;2023-06-10T10:50:39;4.68;;;3.30;;
12852;SDS011;6495;51.808;7.478;2023-06-10T10:53:08;4.57;;;3.33;;
12852;SDS011;6495;51.808;7.478;2023-06-10T10:56:07;6.32;;;3.38;;
12852;SDS011;6495;51.808;7.478;2023-06-10T10:58:41;4.78;;;3.40;;
12852;SDS011;6495;51.808;7.478;2023-06-10T11:01:13;3.55;;;3.25;;
12852;SDS011;6495;51.808;7.478;2023-06-10T11:03:47;4.40;;;3.35;;
12852;SDS011;6495;51.808;7.478;2023-06-10T11:06:33;4.90;;;3.28;;
12852;SDS011;6495;51.808;7.478;2023-06-10T11:12:59;5.03;;;3.50;;
12852;SDS011;6495;51.808;7.478;2023-06-10T11:15:58;6.38;;;3.67;;
12852;SDS011;6495;51.808;7.478;2023-06-10T11:18:50;4.28;;;3.42;;
12852;SDS011;6495;51.808;7.478;2023-06-10T11:21:24;7.18;;;3.85;;
12852;SDS011;6495;51.808;7.478;2023-06-10T11:23:57;4.35;;;3.78;;
12852;SDS011;6495;51.808;7.478;2023-06-10T11:26:43;4.95;;;4.07;;
12852;SDS011;6495;51.808;7.478;2023-06-10T11:29:17;5.53;;;3.40;;
12852;SDS011;6495;51.808;7.478;2023-06-10T11:31:49;4.50;;;3.55;;
12852;SDS011;6495;51.808;7.478;2023-06-10T11:34:33;5.05;;;3.40;;
12852;SDS011;6495;51.808;7.478;2023-06-10T11:37:07;5.10;;;3.70;;
12852;SDS011;6495;51.808;7.478;2023-06-10T11:39:38;7.68;;;3.88;;
12852;SDS011;6495;51.808;7.478;2023-06-10T11:42:07;5.68;;;4.03;;
12852;SDS011;6495;51.808;7.478;2023-06-10T11:44:37;4.43;;;3.55;;
12852;SDS011;6495;51.808;7.478;2023-06-10T11:47:05;4.18;;;3.78;;
12852;SDS011;6495;51.808;7.478;2023-06-10T11:49:42;4.00;;;3.42;;
12852;SDS011;6495;51.808;7.478;2023-06-10T11:52:13;5.05;;;3.78;;
12852;SDS011;6495;51.808;7.478;2023-06-10T11:54:46;5.63;;;3.78;;
12852;SDS011;6495;51.808;7.478;2023-06-10T11:57:58;4.05;;;3.55;;
12852;SDS011;6495;51.808;7.478;2023-06-10T12:01:09;4.47;;;3.47;;
12852;SDS011;6495;51.808;7.478;2023-06-10T12:04:31;6.72;;;4.10;;
12852;SDS011;6495;51.808;7.478;2023-06-10T12:07:44;4.50;;;3.95;;
12852;SDS011;6495;51.808;7.478;2023-06-10T12:11:10;4.63;;;3.95;;
12852;SDS011;6495;51.808;7.478;2023-06-10T12:14:27;3.90;;;3.30;;
12852;SDS011;6495;51.808;7.478;2023-06-10T12:17:54;4.85;;;3.70;;
12852;SDS011;6495;51.808;7.478;2023-06-10T12:21:15;5.50;;;3.70;;
12852;SDS011;6495;51.808;7.478;2023-06-10T12:32:03;5.85;;;3.97;;
12852;SDS011;6495;51.808;7.478;2023-06-10T12:34:34;6.65;;;3.92;;
12852;SDS011;6495;51.808;7.478;2023-06-10T12:37:05;5.90;;;4.30;;
12852;SDS011;6495;51.808;7.478;2023-06-10T12:39:51;5.97;;;4.07;;
12852;SDS011;6495;51.808;7.478;2023-06-10T12:42:21;5.40;;;4.15;;
12852;SDS011;6495;51.808;7.478;2023-06-10T12:44:59;4.90;;;4.15;;
12852;SDS011;6495;51.808;7.478;2023-06-10T12:48:07;5.68;;;4.13;;
12852;SDS011;6495;51.808;7.478;2023-06-10T12:53:32;4.25;;;3.85;;
12852;SDS011;6495;51.808;7.478;2023-06-10T12:59:26;4.72;;;3.95;;
12852;SDS011;6495;51.808;7.478;2023-06-10T13:02:20;4.82;;;3.90;;
12852;SDS011;6495;51.808;7.478;2023-06-10T13:04:55;6.03;;;3.88;;
12852;SDS011;6495;51.808;7.478;2023-06-10T13:07:33;4.38;;;3.63;;
12852;SDS011;6495;51.808;7.478;2023-06-10T13:10:01;4.53;;;3.67;;
12852;SDS011;6495;51.808;7.478;2023-06-10T13:12:30;6.47;;;4.20;;
12852;SDS011;6495;51.808;7.478;2023-06-10T13:15:41;6.20;;;4.10;;
12852;SDS011;6495;51.808;7.478;2023-06-10T13:18:14;7.60;;;4.47;;
12852;SDS011;6495;51.808;7.478;2023-06-10T13:20:44;4.18;;;3.78;;
12852;SDS011;6495;51.808;7.478;2023-06-10T13:23:18;5.30;;;4.10;;
12852;SDS011;6495;51.808;7.478;2023-06-10T13:25:47;4.97;;;4.05;;
12852;SDS011;6495;51.808;7.478;2023-06-10T13:28:18;6.88;;;4.25;;
12852;SDS011;6495;51.808;7.478;2023-06-10T13:31:07;4.65;;;3.75;;
12852;SDS011;6495;51.808;7.478;2023-06-10T13:33:37;5.00;;;4.10;;
12852;SDS011;6495;51.808;7.478;2023-06-10T13:36:05;5.78;;;4.00;;
12852;SDS011;6495;51.808;7.478;2023-06-10T13:38:42;5.00;;;3.83;;
12852;SDS011;6495;51.808;7.478;2023-06-10T13:41:10;6.95;;;4.13;;
12852;SDS011;6495;51.808;7.478;2023-06-10T13:43:48;4.43;;;3.80;;
12852;SDS011;6495;51.808;7.478;2023-06-10T13:46:23;4.82;;;4.22;;
12852;SDS011;6495;51.808;7.478;2023-06-10T13:48:54;6.00;;;3.90;;
12852;SDS011;6495;51.808;7.478;2023-06-10T13:51:23;4.47;;;4.07;;
12852;SDS011;6495;51.808;7.478;2023-06-10T13:54:05;5.18;;;3.90;;
12852;SDS011;6495;51.808;7.478;2023-06-10T13:56:42;4.55;;;4.07;;
12852;SDS011;6495;51.808;7.478;2023-06-10T13:59:28;4.32;;;3.92;;
12852;SDS011;6495;51.808;7.478;2023-06-10T14:01:56;6.13;;;4.10;;
12852;SDS011;6495;51.808;7.478;2023-06-10T14:04:46;6.15;;;4.30;;
12852;SDS011;6495;51.808;7.478;2023-06-10T14:07:23;4.30;;;3.80;;
12852;SDS011;6495;51.808;7.478;2023-06-10T14:10:03;6.05;;;4.35;;
12852;SDS011;6495;51.808;7.478;2023-06-10T14:12:41;4.60;;;4.10;;
12852;SDS011;6495;51.808;7.478;2023-06-10T14:15:16;5.90;;;4.60;;
12852;SDS011;6495;51.808;7.478;2023-06-10T14:17:48;6.40;;;4.70;;
12852;SDS011;6495;51.808;7.478;2023-06-10T14:20:25;5.07;;;4.10;;
12852;SDS011;6495;51.808;7.478;2023-06-10T14:22:57;6.65;;;4.38;;
12852;SDS011;6495;51.808;7.478;2023-06-10T14:25:26;5.10;;;4.60;;
12852;SDS011;6495;51.808;7.478;2023-06-10T14:27:54;6.32;;;4.63;;
12852;SDS011;6495;51.808;7.478;2023-06-10T14:30:22;7.32;;;4.30;;
12852;SDS011;6495;51.808;7.478;2023-06-10T14:32:57;6.40;;;4.22;;
12852;SDS011;6495;51.808;7.478;2023-06-10T14:35:43;5.82;;;4.07;;
12852;SDS011;6495;51.808;7.478;2023-06-10T14:38:23;6.03;;;4.00;;
12852;SDS011;6495;51.808;7.478;2023-06-10T14:40:53;6.22;;;4.32;;
12852;SDS011;6495;51.808;7.478;2023-06-10T14:43:27;7.30;;;4.13;;
12852;SDS011;6495;51.808;7.478;2023-06-10T14:45:59;6.05;;;4.18;;
12852;SDS011;6495;51.808;7.478;2023-06-10T14:48:37;4.55;;;4.13;;
12852;SDS011;6495;51.808;7.478;2023-06-10T14:51:12;4.50;;;3.97;;
12852;SDS011;6495;51.808;7.478;2023-06-10T14:53:43;4.72;;;4.20;;
12852;SDS011;6495;51.808;7.478;2023-06-10T14:56:14;4.38;;;3.95;;
12852;SDS011;6495;51.808;7.478;2023-06-10T14:58:44;4.95;;;4.25;;
12852;SDS011;6495;51.808;7.478;2023-06-10T15:01:16;4.78;;;4.20;;
12852;SDS011;6495;51.808;7.478;2023-06-10T15:03:51;6.57;;;4.18;;
12852;SDS011;6495;51.808;7.478;2023-06-10T15:06:24;8.68;;;4.38;;
12852;SDS011;6495;51.808;7.478;2023-06-10T15:09:00;7.25;;;4.22;;
12852;SDS011;6495;51.808;7.478;2023-06-10T15:11:28;5.25;;;4.07;;
12852;SDS011;6495;51.808;7.478;2023-06-10T15:17:17;7.03;;;4.25;;
12852;SDS011;6495;51.808;7.478;2023-06-10T15:20:54;5.85;;;4.50;;
12852;SDS011;6495;51.808;7.478;2023-06-10T15:23:39;7.13;;;4.70;;
12852;SDS011;6495;51.808;7.478;2023-06-10T15:26:17;7.18;;;4.20;;
12852;SDS011;6495;51.808;7.478;2023-06-10T15:28:51;6.47;;;4.25;;
12852;SDS011;6495;51.808;7.478;2023-06-10T15:31:22;5.07;;;4.57;;
12852;SDS011;6495;51.808;7.478;2023-06-10T15:33:54;4.97;;;4.18;;
12852;SDS011;6495;51.808;7.478;2023-06-10T15:36:37;4.53;;;4.10;;
12852;SDS011;6495;51.808;7.478;2023-06-10T15:39:07;6.25;;;4.60;;
12852;SDS011;6495;51.808;7.478;2023-06-10T15:41:35;6.07;;;4.10;;
12852;SDS011;6495;51.808;7.478;2023-06-10T15:44:09;5.43;;;4.28;;
12852;SDS011;6495;51.808;7.478;2023-06-10T15:47:09;5.13;;;4.40;;
12852;SDS011;6495;51.808;7.478;2023-06-10T15:49:45;7.00;;;4.80;;
12852;SDS011;6495;51.808;7.478;2023-06-10T15:52:26;4.88;;;3.95;;
12852;SDS011;6495;51.808;7.478;2023-06-10T15:55:05;5.65;;;3.83;;
12852;SDS011;6495;51.808;7.478;2023-06-10T15:57:37;10.07;;;4.45;;
12852;SDS011;6495;51.808;7.478;2023-06-10T16:00:14;5.53;;;4.25;;
12852;SDS011;6495;51.808;7.478;2023-06-10T16:02:48;4.82;;;3.75;;
12852;SDS011;6495;51.808;7.478;2023-06-10T16:05:16;5.00;;;4.50;;
12852;SDS011;6495;51.808;7.478;2023-06-10T16:07:53;4.38;;;3.97;;